Latest Weather Observations for Garden Island

IDW60801

Issued at 11:43 pm WST Tuesday 18 February 2020 (issued every 10 minutes, with the page automatically refreshed every 10 minutes)

About weather observations | Map of weather stations | Latest weather observations for WA | Other Formats
Station Details ID: 009256 Name: GARDEN ISLAND HSF Lat: -32.24 Lon: 115.68 Height: 6.0 m
Data from the previous 72 hours. | See also: Recent months at Garden Island
Date/Time
WST
Temp
°C
App
Temp
°C
Dew
Point
°C
Rel
Hum
%
Delta-T
°C
Wind Press
QNH
hPa
Press
MSL
hPa
Rain since
9am
mm
Dir  Spd
km/h
Gust
km/h
Spd
kts
Gust
kts
18/11:30pm 27.6 25.1 11.2 36 9.3 ESE 15 20 8 11 1012.7 1012.7 0.0
18/11:00pm 27.6 25.1 11.2 36 9.3 ESE 15 22 8 12 1012.9 1012.9 0.0
18/10:30pm 27.1 25.5 12.7 41 8.4 ESE 13 17 7 9 1013.1 1013.1 0.0
18/10:00pm 26.6 25.3 12.6 42 8.1 E 11 17 6 9 1013.4 1013.4 0.0
18/09:30pm 26.9 25.3 12.9 42 8.2 ESE 13 15 7 8 1013.4 1013.4 0.0
18/09:00pm 27.4 26.1 12.6 40 8.6 ESE 11 15 6 8 1013.5 1013.5 0.0
18/08:30pm 27.7 26.0 12.5 39 8.9 ESE 13 17 7 9 1013.2 1013.2 0.0
18/08:00pm 28.1 26.8 13.6 41 8.6 ESE 13 17 7 9 1013.0 1013.0 0.0
18/07:30pm 29.0 26.7 11.6 34 10.0 ESE 15 19 8 10 1012.6 1012.6 0.0
18/07:00pm 29.9 27.3 11.9 33 10.5 ESE 17 24 9 13 1012.7 1012.7 0.0
18/06:30pm 30.3 27.8 12.2 33 10.6 ESE 17 24 9 13 1012.4 1012.4 0.0
18/06:00pm 31.1 29.6 12.0 31 11.2 ESE 11 19 6 10 1012.7 1012.7 0.0
18/05:30pm 31.7 30.4 12.5 31 11.4 E 11 17 6 9 1012.7 1012.7 0.0
18/05:00pm 33.2 30.9 11.7 27 12.7 E 15 22 8 12 1013.1 1013.1 0.0
18/04:30pm 32.4 29.8 12.1 29 12.0 ESE 17 20 9 11 1013.4 1013.4 0.0
18/04:00pm 32.7 29.5 11.3 27 12.5 ESE 19 26 10 14 1013.6 1013.6 0.0
18/03:30pm 33.1 30.0 10.4 25 13.1 ESE 17 24 9 13 1013.8 1013.8 0.0
18/03:00pm 33.4 30.6 11.3 26 12.9 E 17 22 9 12 1014.1 1014.1 0.0
18/02:30pm 32.1 29.8 11.8 29 11.9 E 15 20 8 11 1014.5 1014.5 0.0
18/02:00pm 31.5 28.8 11.8 30 11.5 ESE 17 22 9 12 1014.9 1014.9 0.0
18/01:30pm 31.7 29.0 10.4 27 12.2 E 15 20 8 11 1015.3 1015.3 0.0
18/01:00pm 30.1 28.0 11.1 31 10.9 ESE 13 17 7 9 1015.9 1015.9 0.0
18/12:30pm 30.3 27.8 9.8 28 11.6 ESE 13 20 7 11 1016.4 1016.4 0.0
18/12:00pm 29.3 27.0 11.8 34 10.1 ESE 15 20 8 11 1016.8 1016.8 0.0
18/11:30am 28.8 25.3 10.9 33 10.2 E 20 26 11 14 1017.2 1017.2 0.0
18/11:00am 27.8 24.2 10.5 34 9.7 E 20 32 11 17 1017.8 1017.8 0.0
18/10:30am 26.5 22.9 10.6 37 8.9 E 20 30 11 16 1018.1 1018.1 0.0
18/10:00am 26.1 22.3 11.1 39 8.5 E 22 32 12 17 1018.3 1018.3 0.0
18/09:30am 25.0 21.2 11.2 42 7.8 E 22 32 12 17 1018.6 1018.6 0.0
18/09:00am 23.4 19.5 10.8 45 7.0 E 22 32 12 17 1018.8 1018.8 0.0
18/08:30am 22.0 17.2 10.2 47 6.4 E 26 35 14 19 1018.9 1018.9 0.0
18/08:00am 20.9 15.7 10.1 50 5.8 E 28 41 15 22 1019.0 1019.0 0.0
18/07:30am 19.6 14.3 9.8 53 5.2 E 28 39 15 21 1019.0 1019.0 0.0
18/07:00am 18.9 14.3 9.7 55 4.9 E 24 39 13 21 1019.2 1019.2 0.0
18/06:30am 18.2 13.2 9.5 57 4.6 E 26 37 14 20 1019.1 1019.1 0.0
18/06:00am 17.9 12.9 9.5 58 4.4 E 26 35 14 19 1019.0 1019.0 0.0
18/05:30am 17.8 12.4 9.4 58 4.4 E 28 39 15 21 1018.8 1018.8 0.0
18/05:00am 17.8 12.8 9.4 58 4.4 E 26 41 14 22 1019.0 1019.0 0.0
18/04:30am 17.9 12.5 9.5 58 4.4 E 28 39 15 21 1018.9 1018.9 0.0
18/04:00am 18.1 12.8 9.7 58 4.4 E 28 39 15 21 1018.9 1018.9 0.0
18/03:30am 18.1 13.1 9.7 58 4.4 E 26 35 14 19 1019.0 1019.0 0.0
18/03:00am 18.3 13.4 9.9 58 4.4 E 26 35 14 19 1019.0 1019.0 0.0
18/02:36am 18.7 13.5 10.3 58 4.5 E 28 46 15 25 1019.0 1019.0 0.0
18/02:30am 18.6 14.1 10.2 58 4.5 E 24 37 13 20 1018.9 1018.9 0.0
18/02:00am 19.0 14.1 10.0 56 4.8 E 26 35 14 19 1018.9 1018.9 0.0
18/01:30am 19.4 14.2 10.1 55 5.0 E 28 43 15 23 1019.1 1019.1 0.0
18/01:00am 20.1 14.2 10.5 54 5.2 E 32 44 17 24 1019.4 1019.4 0.0
18/12:34am 20.7 15.3 9.6 49 5.9 ESE 28 46 15 25 1019.4 1019.4 0.0
18/12:30am 20.8 15.2 10.3 51 5.7 E 30 46 16 25 1019.4 1019.4 0.0
18/12:00am 21.4 15.9 10.6 50 5.9 E 30 43 16 23 1019.6 1019.6 0.0
 
Date/Time
WST
Temp
°C
App
Temp
°C
Dew
Point
°C
Rel
Hum
%
Delta-T
°C
Wind Press
QNH
hPa
Press
MSL
hPa
Rain since
9am
mm
Dir  Spd
km/h
Gust
km/h
Spd
kts
Gust
kts
17/11:30pm 22.2 17.0 10.4 47 6.5 ESE 28 46 15 25 1019.4 1019.4 0.0
17/11:09pm 22.7 16.8 10.5 46 6.7 ESE 32 50 17 27 1019.2 1019.2 0.0
17/11:00pm 23.0 16.9 10.4 45 6.9 ESE 33 50 18 27 1019.1 1019.1 0.0
17/10:57pm 23.0 17.8 10.1 44 7.0 ESE 28 46 15 25 1019.1 1019.1 0.0
17/10:30pm 23.9 17.9 10.2 42 7.5 ESE 32 41 17 22 1019.1 1019.1 0.0
17/10:00pm 24.6 19.2 10.8 42 7.7 ESE 30 39 16 21 1019.0 1019.0 0.0
17/09:30pm 25.2 20.8 11.7 43 7.7 SE 26 35 14 19 1018.8 1018.8 0.0
17/09:00pm 25.5 21.4 12.7 45 7.4 SE 26 32 14 17 1018.5 1018.5 0.0
17/08:30pm 25.3 22.8 13.5 48 6.9 SE 19 22 10 12 1018.3 1018.3 0.0
17/08:00pm 25.0 23.5 16.2 58 5.4 SE 19 20 10 11 1018.0 1018.0 0.0
17/07:30pm 24.4 23.2 19.2 73 3.3 S 24 33 13 18 1017.7 1017.7 0.0
17/07:00pm 23.8 20.4 19.1 75 3.0 SSW 35 41 19 22 1017.5 1017.5 0.0
17/06:30pm 23.7 19.5 18.8 74 3.1 SSW 39 44 21 24 1017.2 1017.2 0.0
17/06:00pm 23.6 18.8 18.3 72 3.3 SSW 41 50 22 27 1017.0 1017.0 0.0
17/05:30pm 23.5 18.0 17.7 70 3.6 SSW 43 50 23 27 1017.0 1017.0 0.0
17/05:00pm 23.5 17.5 16.8 66 4.1 SSW 44 50 24 27 1016.9 1016.9 0.0
17/04:30pm 23.6 17.9 17.3 67 3.9 SSW 43 54 23 29 1016.9 1016.9 0.0
17/04:00pm 23.6 17.7 17.1 67 4.0 SSW 44 54 24 29 1017.1 1017.1 0.0
17/03:30pm 23.7 18.2 17.7 69 3.7 SSW 43 48 23 26 1017.2 1017.2 0.0
17/03:00pm 23.7 18.5 17.4 68 3.9 SSW 41 50 22 27 1017.4 1017.4 0.0
17/02:30pm 23.5 17.8 17.3 68 3.8 SSW 43 50 23 27 1017.8 1017.8 0.0
17/02:00pm 23.7 19.1 17.9 70 3.6 SSW 39 46 21 25 1018.2 1018.2 0.0
17/01:30pm 24.7 21.5 18.6 69 3.9 SSW 33 43 18 23 1018.6 1018.6 0.0
17/01:00pm 24.4 20.3 16.4 61 4.9 SSW 33 37 18 20 1018.9 1018.9 0.0
17/12:30pm 24.7 21.7 16.9 62 4.8 SSW 28 33 15 18 1019.2 1019.2 0.0
17/12:00pm 24.6 22.3 16.6 61 4.9 SSW 24 26 13 14 1019.8 1019.8 0.0
17/11:30am 26.0 25.9 16.0 54 6.1 S 11 15 6 8 1020.1 1020.1 0.0
17/11:00am 25.3 23.2 13.5 48 6.9 SE 17 20 9 11 1020.2 1020.2 0.0
17/10:30am 25.0 23.4 13.9 50 6.5 SE 15 20 8 11 1020.5 1020.5 0.0
17/10:00am 23.9 21.9 12.8 49 6.4 SE 15 20 8 11 1020.9 1020.9 0.0
17/09:30am 22.9 20.5 12.8 53 5.8 SE 17 26 9 14 1021.0 1021.0 0.0
17/09:00am 21.5 18.1 12.6 57 5.0 SE 22 26 12 14 1021.0 1021.0 0.0
17/08:30am 20.7 17.1 12.9 61 4.4 SE 24 32 13 17 1021.3 1021.3 0.0
17/08:00am 19.8 15.7 12.8 64 3.9 SE 26 32 14 17 1021.2 1021.2 0.0
17/07:30am 19.0 14.5 12.7 67 3.5 SSE 28 35 15 19 1021.1 1021.1 0.0
17/07:00am 18.8 14.0 13.0 69 3.3 SSE 30 35 16 19 1021.0 1021.0 0.0
17/06:30am 18.5 14.0 12.7 69 3.2 SSE 28 32 15 17 1020.7 1020.7 0.0
17/06:00am 18.4 14.1 11.9 66 3.6 SSE 26 32 14 17 1020.5 1020.5 0.0
17/05:30am 18.8 15.0 12.3 66 3.6 SSE 24 30 13 16 1020.3 1020.3 0.0
17/05:00am 18.6 14.3 11.9 65 3.7 SSE 26 30 14 16 1020.0 1020.0 0.0
17/04:30am 18.8 15.7 13.4 71 3.1 SSE 22 28 12 15 1019.5 1019.5 0.0
17/04:00am 18.8 15.5 13.9 73 2.8 SSE 24 30 13 16 1019.2 1019.2 0.0
17/03:30am 18.7 15.1 14.2 75 2.6 SSE 26 30 14 16 1019.0 1019.0 0.0
17/03:00am 18.9 15.1 14.8 77 2.4 SSE 28 32 15 17 1018.9 1018.9 0.0
17/02:30am 19.3 15.8 15.4 78 2.3 SSE 28 33 15 18 1018.6 1018.6 0.0
17/02:00am 19.6 15.1 15.5 77 2.4 SSE 33 37 18 20 1018.3 1018.3 0.0
17/01:30am 20.1 15.4 15.9 77 2.5 SSE 35 44 19 24 1018.2 1018.2 0.0
17/01:00am 20.2 15.2 16.0 77 2.5 SSE 37 43 20 23 1018.0 1018.0 0.0
17/12:30am 20.5 15.5 16.1 76 2.6 S 37 44 20 24 1017.9 1017.9 0.0
17/12:00am 20.8 15.8 16.2 75 2.8 S 37 44 20 24 1017.5 1017.5 0.0
 
Date/Time
WST
Temp
°C
App
Temp
°C
Dew
Point
°C
Rel
Hum
%
Delta-T
°C
Wind Press
QNH
hPa
Press
MSL
hPa
Rain since
9am
mm
Dir  Spd
km/h
Gust
km/h
Spd
kts
Gust
kts
16/11:30pm 21.2 16.6 16.2 73 3.0 S 35 44 19 24 1017.4 1017.4 0.0
16/11:00pm 21.4 16.7 15.9 71 3.3 S 35 43 19 23 1017.4 1017.4 0.0
16/10:30pm 22.1 17.4 17.7 76 2.7 S 39 44 21 24 1017.2 1017.2 0.0
16/10:00pm 22.0 16.6 16.9 73 3.1 S 41 46 22 25 1017.3 1017.3 0.0
16/09:30pm 21.8 16.7 17.8 78 2.5 SSW 41 46 22 25 1017.1 1017.1 0.0
16/09:00pm 22.2 17.7 18.2 78 2.5 SSW 39 46 21 25 1016.9 1016.9 0.0
16/08:30pm 21.7 16.8 17.3 76 2.7 SSW 39 46 21 25 1016.6 1016.6 0.0
16/08:00pm 21.7 16.9 17.5 77 2.6 SSW 39 48 21 26 1016.4 1016.4 0.0
16/07:30pm 22.1 16.9 16.6 71 3.3 SSW 39 48 21 26 1016.3 1016.3 0.0
16/07:00pm 21.7 15.6 16.2 71 3.3 SSW 43 50 23 27 1015.9 1015.9 0.0
16/06:30pm 21.8 16.9 17.4 76 2.7 SSW 39 44 21 24 1015.7 1015.7 0.0
16/06:00pm 21.8 17.7 18.2 80 2.2 SSW 37 43 20 23 1015.5 1015.5 0.0
16/05:30pm 21.9 17.9 18.5 81 2.1 SSW 37 43 20 23 1015.5 1015.5 0.0
16/05:00pm 22.4 18.9 18.8 80 2.3 SSW 35 43 19 23 1015.5 1015.5 0.0
16/04:30pm 22.1 18.6 17.5 75 2.8 SW 32 39 17 21 1015.5 1015.5 0.0
16/04:00pm 22.8 19.3 17.9 74 3.1 SW 33 41 18 22 1015.3 1015.3 0.0
16/03:30pm 22.5 18.6 16.5 69 3.7 SW 32 39 17 21 1015.2 1015.2 0.0
16/03:00pm 22.9 19.6 17.1 70 3.6 SW 30 39 16 21 1015.2 1015.2 0.0
16/02:30pm 22.6 19.6 15.9 66 4.0 SW 26 35 14 19 1015.4 1015.4 0.0
16/02:00pm 22.8 19.9 16.1 66 4.1 SW 26 33 14 18 1015.5 1015.5 0.0
16/01:30pm 22.8 19.9 16.1 66 4.1 SW 26 35 14 19 1015.6 1015.6 0.0
16/01:00pm 22.6 19.4 16.2 67 3.9 SW 28 30 15 16 1015.8 1015.8 0.0
16/12:30pm 22.5 19.4 15.6 65 4.1 SW 26 32 14 17 1015.8 1015.8 0.0
16/12:00pm 22.8 20.5 15.6 64 4.3 SW 22 28 12 15 1016.0 1016.0 0.0
16/11:30am 22.8 20.8 15.6 64 4.3 SW 20 28 11 15 1016.2 1016.2 0.0
16/11:00am 22.3 19.7 14.9 63 4.4 SSW 22 28 12 15 1016.3 1016.3 0.0
16/10:30am 22.1 19.9 15.9 68 3.7 SSW 22 26 12 14 1016.4 1016.4 0.0
16/10:00am 21.4 19.2 15.0 67 3.8 S 20 30 11 16 1016.3 1016.3 0.0
16/09:30am 21.2 19.2 15.5 70 3.4 S 20 28 11 15 1016.2 1016.2 0.0
16/09:00am 20.5 18.4 14.8 70 3.3 S 19 24 10 13 1016.2 1016.2 0.0
16/08:30am 20.1 18.3 14.5 70 3.3 SSE 17 22 9 12 1016.2 1016.2 0.0
16/08:00am 19.6 17.7 14.2 71 3.1 SSE 17 20 9 11 1015.8 1015.8 0.0
16/07:30am 19.0 16.1 14.1 73 2.8 SSE 22 26 12 14 1015.6 1015.6 0.0
16/07:00am 18.7 15.9 14.4 76 2.5 SSE 22 28 12 15 1015.5 1015.5 0.0
16/06:30am 18.6 15.9 14.5 77 2.4 SE 22 28 12 15 1015.3 1015.3 0.0
16/06:00am 18.7 15.7 14.8 78 2.3 SSE 24 30 13 16 1015.0 1015.0 0.0
16/05:30am 19.2 16.8 15.5 79 2.2 SSE 22 26 12 14 1014.4 1014.4 0.0
16/05:00am 20.5 16.7 15.7 74 2.9 SSW 30 37 16 20 1013.8 1013.8 0.0
16/04:30am 20.7 17.0 16.1 75 2.8 SSW 30 35 16 19 1013.6 1013.6 0.0
16/04:00am 20.4 16.2 15.6 74 2.9 SSW 32 37 17 20 1013.3 1013.3 0.0
16/03:30am 20.3 16.3 15.3 73 3.0 SSW 30 37 16 20 1013.1 1013.1 0.0
16/03:00am 20.4 16.6 15.8 75 2.7 SSW 30 35 16 19 1012.9 1012.9 0.0
16/02:30am 20.9 17.6 17.1 79 2.3 SSW 30 35 16 19 1012.7 1012.7 0.0
16/02:00am 20.5 16.5 16.3 77 2.5 SSW 32 37 17 20 1012.5 1012.5 0.0
16/01:30am 20.6 17.0 16.2 76 2.6 SW 30 35 16 19 1012.5 1012.5 0.0
16/01:00am 20.5 16.8 15.9 75 2.7 SW 30 35 16 19 1012.6 1012.6 0.0
16/12:30am 20.8 17.2 16.2 75 2.8 SSW 30 33 16 18 1012.9 1012.9 0.0
16/12:00am 20.7 17.3 15.9 74 2.9 SW 28 33 15 18 1013.0 1013.0 0.0

Other formats

Comma delimited format used in spreadsheet applications
http://www.bom.gov.au/fwo/IDW60801/IDW60801.95607.axf

JavaScript Object Notation format (JSON) in row-major order
http://www.bom.gov.au/fwo/IDW60801/IDW60801.95607.json

Data quality

Most of these data are generated automatically and are frequently updated. Quality checks on data are not normally performed. It is possible for incorrect values to appear. Refer to information at About Latest Weather Observations and please check the disclaimer before using these data.